createdAt,value
2023-05-22T00:03:09.687Z,8.60
2023-05-22T00:08:10.644Z,8.40
2023-05-22T00:13:09.190Z,8.70
2023-05-22T00:18:08.679Z,8.50
2023-05-22T00:23:09.460Z,8.90
2023-05-22T00:28:08.944Z,8.30
2023-05-22T00:33:08.642Z,8.30
2023-05-22T00:38:08.823Z,7.90
2023-05-22T00:43:09.816Z,8.00
2023-05-22T00:48:08.654Z,8.70
2023-05-22T00:53:09.803Z,8.40
2023-05-22T00:58:11.153Z,8.30
2023-05-22T01:03:09.409Z,8.70
2023-05-22T01:05:11.984Z,8.70
2023-05-22T01:08:09.071Z,8.70
2023-05-22T01:13:17.357Z,8.00
2023-05-22T01:18:18.571Z,8.00
2023-05-22T01:19:33.875Z,8.00
2023-05-22T01:23:26.835Z,8.10
2023-05-22T01:28:24.317Z,7.80
2023-05-22T01:33:10.643Z,7.90
2023-05-22T01:38:10.146Z,8.40
2023-05-22T01:43:09.049Z,8.40
2023-05-22T01:48:08.634Z,8.00
2023-05-22T01:53:14.875Z,8.20
2023-05-22T01:58:15.676Z,8.20
2023-05-22T02:03:18.388Z,8.30
2023-05-22T02:08:10.417Z,8.20
2023-05-22T02:13:09.130Z,8.30
2023-05-22T02:18:10.319Z,8.30
2023-05-22T02:23:08.642Z,8.60
2023-05-22T02:28:08.611Z,8.00
2023-05-22T02:30:47.518Z,7.90
2023-05-22T02:33:08.585Z,7.90
2023-05-22T02:38:08.550Z,7.60
2023-05-22T02:43:08.595Z,7.90
2023-05-22T02:48:08.493Z,8.50
2023-05-22T02:53:08.785Z,8.20
2023-05-22T02:58:10.775Z,8.50
2023-05-22T03:03:08.636Z,8.30
2023-05-22T03:08:08.748Z,8.00
2023-05-22T03:13:08.720Z,7.90
2023-05-22T03:18:09.064Z,8.40
2023-05-22T03:23:10.968Z,8.40
2023-05-22T03:28:09.035Z,8.70
2023-05-22T03:33:08.851Z,9.20
2023-05-22T03:38:08.857Z,8.90
2023-05-22T03:43:09.353Z,9.60
2023-05-22T03:48:09.582Z,9.10
2023-05-22T03:53:08.438Z,9.50
2023-05-22T03:58:09.002Z,9.20
2023-05-22T04:03:11.937Z,9.00
2023-05-22T04:08:08.416Z,9.60
2023-05-22T04:12:51.765Z,9.40
2023-05-22T04:13:08.410Z,9.40
2023-05-22T04:18:08.804Z,9.80
2023-05-22T04:23:09.265Z,9.50
2023-05-22T04:28:08.610Z,9.10
2023-05-22T04:30:56.568Z,9.20
2023-05-22T06:19:04.816Z,4.40
2023-05-22T06:20:29.777Z,4.40
2023-05-22T06:25:29.705Z,4.70
2023-05-22T06:30:39.668Z,4.50
2023-05-22T06:35:30.364Z,4.10
2023-05-22T06:40:29.649Z,3.80
2023-05-22T06:45:30.472Z,4.00
2023-05-22T06:50:30.141Z,3.80
2023-05-22T06:55:29.919Z,4.40
2023-05-22T07:00:30.743Z,3.70
2023-05-22T07:03:10.885Z,3.70
2023-05-22T07:05:29.778Z,3.50
2023-05-22T07:10:29.690Z,3.30
2023-05-22T07:15:30.347Z,3.60
2023-05-22T07:20:29.819Z,4.30
2023-05-22T07:25:29.842Z,3.30
2023-05-22T07:30:30.384Z,3.30
2023-05-22T07:35:30.026Z,2.90
2023-05-22T07:40:29.630Z,2.90
2023-05-22T07:45:29.983Z,3.60
2023-05-22T07:50:32.189Z,2.40
2023-05-22T07:55:29.698Z,2.70
2023-05-22T08:00:31.273Z,2.00
2023-05-22T08:05:29.834Z,1.90
2023-05-22T08:10:37.188Z,2.60
2023-05-22T08:15:29.987Z,2.20
2023-05-22T08:20:29.759Z,2.30
2023-05-22T08:25:29.669Z,2.20
2023-05-22T08:30:30.896Z,2.00
2023-05-22T08:35:29.606Z,2.20
2023-05-22T08:40:35.609Z,2.10
2023-05-22T08:45:33.162Z,1.90
2023-05-22T08:50:30.272Z,2.10
2023-05-22T08:54:52.122Z,2.10
2023-05-22T08:55:29.993Z,2.10
2023-05-22T09:00:30.672Z,2.30
2023-05-22T09:00:35.033Z,2.30
2023-05-22T09:05:30.351Z,2.10
2023-05-22T09:10:29.763Z,2.00
2023-05-22T09:15:30.944Z,2.10
2023-05-22T09:20:34.102Z,2.10
2023-05-22T09:25:30.718Z,1.90
2023-05-22T09:30:34.250Z,1.70
2023-05-22T09:35:30.621Z,1.80
2023-05-22T09:40:33.886Z,1.90
2023-05-22T09:45:33.898Z,1.80
2023-05-22T09:50:29.661Z,1.90
2023-05-22T09:55:31.194Z,2.10
2023-05-22T10:00:33.511Z,1.90
2023-05-22T10:05:31.050Z,2.20
2023-05-22T10:10:29.841Z,1.90
2023-05-22T10:15:31.187Z,1.80
2023-05-22T10:20:29.809Z,1.80
2023-05-22T10:25:29.620Z,1.70
2023-05-22T10:30:35.524Z,2.00
2023-05-22T10:35:40.006Z,2.60
2023-05-22T10:40:34.452Z,1.70
2023-05-22T10:45:30.837Z,2.00
2023-05-22T10:50:29.835Z,2.10
2023-05-22T10:55:29.649Z,2.00
2023-05-22T11:00:30.645Z,1.90
2023-05-22T11:05:33.518Z,2.60
2023-05-22T11:10:50.836Z,2.30
2023-05-22T11:15:30.322Z,2.10
2023-05-22T11:20:36.526Z,2.40
2023-05-22T11:25:32.817Z,2.20
2023-05-22T11:30:29.722Z,1.90
2023-05-22T11:35:30.399Z,2.30
2023-05-22T11:40:30.203Z,2.00
2023-05-22T11:45:29.868Z,1.90
2023-05-22T11:50:41.750Z,2.20
2023-05-22T11:55:32.463Z,1.90
2023-05-22T12:00:30.417Z,1.90
2023-05-22T12:05:30.796Z,2.00
2023-05-22T12:10:30.498Z,1.70
2023-05-22T12:15:29.891Z,2.20
2023-05-22T12:20:29.875Z,1.90
2023-05-22T12:25:35.062Z,2.10
2023-05-22T12:30:39.196Z,1.90
2023-05-22T12:35:29.572Z,1.90
2023-05-22T12:40:30.250Z,2.10
2023-05-22T12:45:30.086Z,2.50
2023-05-22T12:50:30.620Z,2.30
2023-05-22T12:55:30.305Z,2.70
2023-05-22T13:00:29.792Z,3.00
2023-05-22T13:05:30.020Z,3.00
2023-05-22T13:10:30.222Z,2.20
2023-05-22T13:15:31.652Z,2.00
2023-05-22T13:20:29.550Z,2.40
2023-05-22T13:25:30.382Z,2.40
2023-05-22T13:30:29.489Z,1.90
2023-05-22T13:35:29.889Z,1.90
2023-05-22T13:40:30.237Z,2.00
2023-05-22T13:45:30.134Z,2.00
2023-05-22T13:50:29.704Z,1.80
2023-05-22T13:55:29.968Z,1.80
2023-05-22T14:00:30.057Z,1.90
2023-05-22T14:05:31.145Z,2.10
2023-05-22T14:10:29.952Z,1.70
2023-05-22T14:15:30.016Z,2.00
2023-05-22T14:20:29.513Z,2.40
2023-05-22T14:25:30.174Z,2.00
2023-05-22T14:30:29.893Z,2.20
2023-05-22T14:35:30.093Z,2.70
2023-05-22T14:40:30.408Z,2.20
2023-05-22T14:45:29.746Z,2.10
2023-05-22T14:50:29.605Z,2.20
2023-05-22T14:55:30.920Z,2.10
2023-05-22T15:00:30.072Z,2.30
2023-05-22T15:05:29.571Z,2.20
2023-05-22T15:10:29.651Z,2.00
2023-05-22T15:15:30.087Z,2.50
2023-05-22T15:20:29.838Z,2.00
2023-05-22T15:25:33.832Z,1.90
2023-05-22T15:30:34.319Z,3.20
2023-05-22T15:35:29.967Z,2.30
2023-05-22T15:40:29.490Z,2.00
2023-05-22T15:45:29.845Z,2.10
2023-05-22T15:50:29.799Z,2.00
2023-05-22T15:55:29.437Z,2.30
2023-05-22T16:00:30.305Z,2.30
2023-05-22T16:05:33.876Z,1.90
2023-05-22T16:10:29.445Z,2.00
2023-05-22T16:14:59.959Z,2.20
2023-05-22T16:15:29.693Z,2.20
2023-05-22T16:20:29.720Z,2.00
2023-05-22T16:21:50.032Z,2.00
2023-05-22T16:25:29.834Z,2.20
2023-05-22T16:30:29.532Z,2.30
2023-05-22T16:35:29.629Z,2.20
2023-05-22T16:40:30.645Z,2.00
2023-05-22T16:45:31.151Z,2.40
2023-05-22T16:50:23.769Z,2.40
2023-05-22T16:50:29.470Z,2.40
2023-05-22T16:55:30.346Z,2.50
2023-05-22T17:00:29.570Z,2.10
2023-05-22T17:05:29.698Z,2.10
2023-05-22T17:10:29.976Z,2.50
2023-05-22T17:15:29.494Z,2.20
2023-05-22T17:16:09.048Z,2.20
2023-05-22T17:20:31.777Z,2.20
2023-05-22T17:25:30.244Z,2.10
2023-05-22T17:30:30.500Z,2.50
2023-05-22T17:35:29.846Z,2.30
2023-05-22T17:40:40.584Z,2.50
2023-05-22T17:45:29.453Z,2.20
2023-05-22T17:50:29.789Z,2.90
2023-05-22T17:55:29.827Z,2.40
2023-05-22T18:00:29.472Z,2.50
2023-05-22T18:05:29.441Z,3.50
2023-05-22T18:10:30.163Z,2.30
2023-05-22T18:15:30.488Z,2.30
2023-05-22T18:20:30.533Z,2.70
2023-05-22T18:25:29.443Z,2.40
2023-05-22T18:30:29.439Z,3.00
2023-05-22T18:35:29.825Z,2.90
2023-05-22T18:40:29.968Z,3.10
2023-05-22T18:45:29.586Z,3.20
2023-05-22T18:50:29.608Z,2.80
2023-05-22T18:55:30.123Z,3.10
2023-05-22T19:00:29.711Z,3.50
2023-05-22T19:05:29.671Z,3.70
2023-05-22T19:10:30.037Z,3.80
2023-05-22T19:15:29.582Z,4.10
2023-05-22T19:20:29.630Z,3.90
2023-05-22T19:25:30.906Z,4.50
2023-05-22T19:30:29.588Z,4.50
2023-05-22T19:35:29.517Z,4.50
2023-05-22T19:40:29.382Z,4.60
2023-05-22T19:45:29.502Z,4.80
2023-05-22T19:50:29.829Z,5.50
2023-05-22T19:55:30.788Z,5.30
2023-05-22T20:00:30.421Z,5.40
2023-05-22T20:05:29.403Z,5.10
2023-05-22T20:10:30.826Z,5.50
2023-05-22T20:15:30.073Z,5.10
2023-05-22T20:20:29.478Z,5.00
2023-05-22T20:25:30.164Z,5.40
2023-05-22T20:30:29.396Z,5.70
2023-05-22T20:35:31.176Z,5.30
2023-05-22T20:40:31.380Z,5.30
2023-05-22T20:45:29.570Z,5.70
2023-05-22T20:50:31.643Z,5.30
2023-05-22T20:55:29.834Z,5.30
2023-05-22T21:00:29.316Z,5.30
2023-05-22T21:05:29.790Z,5.10
2023-05-22T21:10:29.357Z,5.80
2023-05-22T21:15:29.462Z,6.00
2023-05-22T21:20:30.013Z,5.50
2023-05-22T21:25:29.445Z,5.50
2023-05-22T21:30:30.538Z,6.10
2023-05-22T21:35:29.631Z,6.50
2023-05-22T21:40:29.420Z,7.00
2023-05-22T21:45:30.150Z,7.20
2023-05-22T21:50:29.931Z,7.10
2023-05-22T21:55:29.369Z,7.30
2023-05-22T22:00:29.213Z,7.20
2023-05-22T22:05:30.158Z,7.70
2023-05-22T22:10:29.389Z,7.90
2023-05-22T22:15:12.215Z,7.90
2023-05-22T22:15:30.567Z,7.90
2023-05-22T22:20:43.697Z,8.70
2023-05-22T22:25:29.247Z,8.20
2023-05-22T22:30:29.362Z,8.00
2023-05-22T22:31:59.647Z,8.00
2023-05-22T22:32:18.452Z,8.00
2023-05-22T22:35:29.683Z,9.70
2023-05-22T22:40:29.553Z,9.00
2023-05-22T22:45:30.254Z,9.50
2023-05-22T22:50:29.269Z,9.40
2023-05-22T22:55:29.356Z,9.80
2023-05-22T23:00:30.271Z,9.20
2023-05-22T23:05:29.501Z,9.20
2023-05-22T23:10:29.553Z,8.30
2023-05-22T23:15:29.775Z,9.40
2023-05-22T23:20:29.936Z,9.60
2023-05-22T23:25:29.266Z,8.50
2023-05-22T23:30:30.075Z,9.00
2023-05-22T23:35:20.600Z,9.70
2023-05-22T23:35:29.891Z,9.70
2023-05-22T23:40:29.259Z,9.60
2023-05-22T23:45:29.965Z,8.60
2023-05-22T23:50:29.438Z,9.00
2023-05-22T23:55:29.481Z,9.50
